Time;durP1;ratioP1;P1;durP2;ratioP2;P2;SDS_P1;SDS_P2;PMS_P1;PMS_P2;Temp;Humidity;BMP_temperature;BMP_pressure;BME280_temperature;BME280_humidity;BME280_pressure;Samples;Min_cycle;Max_cycle;Signal;HPM_P1;HPM_P2
2024/03/22 00:02:18;;;;;;;13.17;8.40;;;;;;;9.22;68.02;99547.44;5092172;28;38819;-76
2024/03/22 00:04:45;;;;;;;10.37;7.97;;;;;;;9.20;69.12;99533.44;5091855;28;42733;-77
2024/03/22 00:07:11;;;;;;;10.33;7.77;;;;;;;9.17;68.32;99537.06;5091863;28;41725;-77
2024/03/22 00:09:39;;;;;;;13.43;8.10;;;;;;;9.13;68.25;99534.66;5091130;28;44128;-77
2024/03/22 00:12:06;;;;;;;11.83;8.00;;;;;;;8.98;68.29;99523.84;5091994;28;42107;-76
2024/03/22 00:14:35;;;;;;;8.90;6.70;;;;;;;9.05;68.53;99534.13;5091645;28;41942;-76
2024/03/22 00:17:01;;;;;;;8.90;6.43;;;;;;;9.00;69.08;99532.56;5093223;28;43118;-77
2024/03/22 00:19:29;;;;;;;14.80;9.10;;;;;;;8.96;74.23;99509.84;5093251;28;41081;-77
2024/03/22 00:21:55;;;;;;;11.23;8.60;;;;;;;8.93;77.12;99493.28;5092002;28;39802;-77
2024/03/22 00:24:23;;;;;;;16.87;10.10;;;;;;;8.89;79.35;99497.88;5092848;28;42353;-77
2024/03/22 00:26:49;;;;;;;12.77;9.87;;;;;;;8.86;80.55;99484.78;5074734;28;43060;-77
2024/03/22 00:29:16;;;;;;;14.23;10.03;;;;;;;8.81;81.04;99481.47;5092889;28;42373;-76
2024/03/22 00:31:44;;;;;;;14.67;10.53;;;;;;;8.80;79.23;99494.75;5074177;28;41462;-78
2024/03/22 00:34:12;;;;;;;14.30;10.20;;;;;;;8.66;78.38;99466.31;5074239;28;43247;-76
2024/03/22 00:36:38;;;;;;;10.63;8.37;;;;;;;8.76;77.22;99494.06;5091801;28;41944;-77
2024/03/22 00:39:06;;;;;;;12.30;8.70;;;;;;;8.72;75.85;99492.47;5074359;28;41041;-77
2024/03/22 00:41:32;;;;;;;10.77;7.60;;;;;;;8.67;75.57;99483.88;5091453;28;40180;-77
2024/03/22 00:43:59;;;;;;;12.53;8.43;;;;;;;8.64;75.75;99489.31;5092726;28;42689;-78
2024/03/22 00:46:26;;;;;;;12.57;9.10;;;;;;;8.57;75.30;99479.94;5092636;28;43594;-76
2024/03/22 00:48:55;;;;;;;11.43;7.77;;;;;;;8.39;74.55;99464.94;5074669;28;42625;-77
2024/03/22 00:51:22;;;;;;;10.23;7.57;;;;;;;8.47;74.23;99486.56;5091113;28;39093;-76
2024/03/22 00:53:49;;;;;;;9.77;7.50;;;;;;;8.46;73.69;99490.97;5093055;28;41762;-77
2024/03/22 00:56:16;;;;;;;9.60;6.53;;;;;;;8.41;73.28;99490.31;5090944;28;41594;-76
2024/03/22 00:58:43;;;;;;;12.27;7.30;;;;;;;8.35;73.20;99492.38;5092025;28;42366;-76
2024/03/22 01:01:09;;;;;;;9.60;7.23;;;;;;;8.29;73.15;99489.03;5090607;28;40060;-76
2024/03/22 01:03:37;;;;;;;10.87;7.40;;;;;;;8.27;73.18;99490.91;5092622;28;41699;-76
2024/03/22 01:06:05;;;;;;;8.23;6.37;;;;;;;8.21;72.99;99483.22;5073988;28;41607;-77
2024/03/22 01:08:33;;;;;;;10.27;6.93;;;;;;;8.14;73.21;99484.44;5092464;28;42168;-77
2024/03/22 01:10:59;;;;;;;9.10;6.43;;;;;;;8.10;74.00;99482.84;5073770;28;39266;-75
2024/03/22 01:13:26;;;;;;;11.13;7.40;;;;;;;8.06;73.49;99483.88;5092450;28;42444;-77
2024/03/22 01:15:53;;;;;;;11.67;7.17;;;;;;;8.03;73.03;99481.41;5090740;28;41706;-77
2024/03/22 01:18:20;;;;;;;10.10;7.40;;;;;;;7.99;73.03;99477.16;5091263;28;43186;-77
2024/03/22 01:20:47;;;;;;;9.00;6.47;;;;;;;7.94;73.08;99474.69;5090685;28;39878;-77
2024/03/22 01:23:15;;;;;;;11.33;7.17;;;;;;;7.91;73.49;99476.63;5091839;28;42742;-76
2024/03/22 01:25:42;;;;;;;9.73;7.17;;;;;;;7.89;73.21;99470.56;5073417;28;43138;-76
2024/03/22 01:28:10;;;;;;;9.90;6.47;;;;;;;7.85;73.34;99476.88;5090994;28;42128;-77
2024/03/22 01:30:36;;;;;;;8.80;6.27;;;;;;;7.81;72.95;99478.78;5091226;28;40189;-76
2024/03/22 01:33:04;;;;;;;9.63;7.13;;;;;;;7.77;72.99;99477.19;5090563;28;40625;-76
2024/03/22 01:35:30;;;;;;;8.60;6.67;;;;;;;7.75;72.88;99472.91;5073665;28;41446;-76
2024/03/22 01:37:58;;;;;;;9.83;6.83;;;;;;;7.71;72.96;99468.66;5090973;28;43158;-76
2024/03/22 01:40:26;;;;;;;10.93;6.97;;;;;;;7.66;72.54;99474.16;5090462;28;39792;-78
2024/03/22 01:42:54;;;;;;;8.87;6.20;;;;;;;7.58;72.54;99463.91;5090655;28;42667;-77
2024/03/22 01:45:24;;;;;;;8.63;6.13;;;;;;;7.55;72.14;99469.28;5090273;28;42894;-77
2024/03/22 01:47:53;;;;;;;9.70;6.43;;;;;;;7.50;71.96;99463.38;5091477;28;42306;-77
2024/03/22 01:50:20;;;;;;;11.07;7.23;;;;;;;7.44;72.36;99460.97;5090375;28;40891;-76
2024/03/22 01:52:48;;;;;;;11.33;7.80;;;;;;;7.40;72.06;99459.38;5093579;28;40459;-76
2024/03/22 01:55:15;;;;;;;9.30;6.37;;;;;;;7.31;71.81;99449.19;5076708;28;41876;-76
2024/03/22 01:57:44;;;;;;;9.43;6.30;;;;;;;7.31;72.16;99465.00;5094230;28;43185;-77
2024/03/22 02:00:14;;;;;;;10.00;7.33;;;;;;;7.24;72.41;99457.41;5076726;28;41251;-76
2024/03/22 02:02:42;;;;;;;11.37;7.67;;;;;;;7.15;72.38;99448.09;5094054;28;40705;-76
2024/03/22 02:05:12;;;;;;;9.17;6.60;;;;;;;7.16;72.23;99440.16;5076650;28;43979;-75
2024/03/22 02:07:40;;;;;;;8.20;5.83;;;;;;;7.17;72.20;99446.28;5094015;28;42441;-76
2024/03/22 02:10:10;;;;;;;9.37;6.37;;;;;;;7.14;72.23;99441.13;5093491;28;40946;-76
2024/03/22 02:12:38;;;;;;;10.23;6.40;;;;;;;7.11;72.00;99441.22;5076860;28;42503;-76
2024/03/22 02:15:09;;;;;;;8.63;6.37;;;;;;;7.00;72.18;99427.63;5076431;28;42934;-77
2024/03/22 02:17:35;;;;;;;8.60;5.93;;;;;;;7.03;72.32;99422.25;5077084;28;42236;-77
2024/03/22 02:20:04;;;;;;;9.77;7.07;;;;;;;6.95;72.46;99421.66;5094277;28;40007;-76
2024/03/22 02:22:30;;;;;;;10.57;7.10;;;;;;;6.92;72.33;99420.03;5075734;28;41097;-76
2024/03/22 02:24:59;;;;;;;10.07;6.90;;;;;;;6.88;72.50;99417.56;5092167;28;42804;-77
2024/03/22 02:27:26;;;;;;;9.53;7.33;;;;;;;6.84;72.25;99422.94;5092401;28;42255;-77
2024/03/22 02:29:53;;;;;;;11.53;7.13;;;;;;;6.80;72.38;99421.34;5075095;28;40929;-77
2024/03/22 02:32:19;;;;;;;11.07;6.67;;;;;;;6.77;72.29;99424.09;5109490;28;40295;-77
2024/03/22 02:34:47;;;;;;;9.03;6.70;;;;;;;6.74;72.21;99418.94;5093724;28;41928;-77
2024/03/22 02:37:13;;;;;;;10.03;6.57;;;;;;;6.63;72.48;99397.44;5092614;28;42702;-76
2024/03/22 02:39:41;;;;;;;12.60;7.70;;;;;;;6.69;72.94;99412.13;5094390;28;40906;-76
2024/03/22 02:42:09;;;;;;;10.63;7.57;;;;;;;6.66;72.63;99401.75;5093203;28;41028;-75
2024/03/22 02:44:42;;;;;;;12.23;7.80;;;;;;;6.63;72.28;99402.72;5093045;28;41729;-77
2024/03/22 02:47:09;;;;;;;10.70;7.03;;;;;;;6.61;72.39;99407.16;5091514;28;43400;-76
2024/03/22 02:49:37;;;;;;;9.30;6.50;;;;;;;6.42;72.33;99388.59;5092870;28;39093;-77
2024/03/22 02:52:03;;;;;;;12.13;7.90;;;;;;;6.54;72.42;99397.81;5092413;28;42746;-76
2024/03/22 02:54:31;;;;;;;10.00;7.20;;;;;;;6.51;72.30;99402.31;5092789;28;42959;-76
2024/03/22 02:56:57;;;;;;;10.67;7.30;;;;;;;6.48;72.28;99392.75;5094338;28;42328;-76
2024/03/22 02:59:28;;;;;;;12.20;7.73;;;;;;;6.23;72.39;99361.25;5094355;28;39876;-77
2024/03/22 03:01:54;;;;;;;11.17;6.87;;;;;;;6.43;72.62;99400.81;5094093;28;41737;-77
2024/03/22 03:04:22;;;;;;;12.33;7.53;;;;;;;6.29;72.34;99373.31;5093151;28;42795;-76
2024/03/22 03:06:48;;;;;;;11.73;7.47;;;;;;;6.38;72.75;99396.66;5093121;28;42139;-76
2024/03/22 03:09:16;;;;;;;9.53;7.07;;;;;;;6.35;72.57;99396.75;5076845;28;39079;-77
2024/03/22 03:11:42;;;;;;;13.07;8.00;;;;;;;6.33;72.87;99404.69;5092937;28;41780;-77
2024/03/22 03:14:09;;;;;;;10.07;6.93;;;;;;;6.31;72.71;99408.28;5076230;28;44222;-76
2024/03/22 03:16:37;;;;;;;7.93;5.90;;;;;;;6.24;72.82;99393.66;5094021;28;41898;-76
2024/03/22 03:19:05;;;;;;;10.73;7.83;;;;;;;6.25;74.12;99390.13;5076097;28;38643;-76
2024/03/22 03:21:31;;;;;;;12.23;7.67;;;;;;;6.23;74.14;99394.56;5075552;28;40678;-77
2024/03/22 03:23:59;;;;;;;13.17;8.43;;;;;;;6.22;73.94;99391.06;5093926;28;43752;-75
2024/03/22 03:26:26;;;;;;;12.50;7.20;;;;;;;6.09;74.47;99360.88;5092198;28;42444;-76
2024/03/22 03:28:55;;;;;;;13.27;8.30;;;;;;;6.21;74.92;99377.97;5092686;28;42245;-75
2024/03/22 03:31:21;;;;;;;17.43;9.40;;;;;;;6.20;74.92;99381.53;5091790;28;44037;-76
2024/03/22 03:33:50;;;;;;;12.93;8.90;;;;;;;6.18;74.91;99373.72;5092655;28;43474;-76
2024/03/22 03:36:16;;;;;;;10.87;7.67;;;;;;;6.01;74.91;99353.28;5092155;28;42343;-76
2024/03/22 03:38:44;;;;;;;11.93;7.67;;;;;;;6.18;74.60;99380.75;5092513;28;41354;-77
2024/03/22 03:41:10;;;;;;;11.30;7.67;;;;;;;6.15;74.66;99380.84;5091853;28;41556;-76
2024/03/22 03:43:38;;;;;;;10.00;6.80;;;;;;;6.13;74.24;99384.38;5091989;28;41548;-77
2024/03/22 03:46:04;;;;;;;8.93;6.73;;;;;;;6.12;74.30;99385.31;5092055;28;42185;-76
2024/03/22 03:48:31;;;;;;;10.73;6.97;;;;;;;6.10;74.42;99386.25;5075275;28;39557;-76
2024/03/22 03:51:02;;;;;;;10.27;7.23;;;;;;;6.07;74.51;99387.22;5074504;28;43287;-77
2024/03/22 03:53:30;;;;;;;9.97;6.53;;;;;;;5.95;73.90;99374.50;5090209;28;43879;-76
2024/03/22 03:55:57;;;;;;;10.33;7.03;;;;;;;6.00;73.87;99391.00;5093050;28;42532;-76
2024/03/22 03:58:24;;;;;;;8.23;6.53;;;;;;;5.97;74.16;99396.34;5092055;28;40615;-77
2024/03/22 04:00:50;;;;;;;10.07;6.63;;;;;;;5.94;73.87;99390.34;5092220;28;41516;-76
2024/03/22 04:03:19;;;;;;;9.10;6.43;;;;;;;5.90;74.12;99389.59;5093422;28;42736;-77
2024/03/22 04:05:45;;;;;;;10.07;6.87;;;;;;;5.84;73.94;99383.66;5074849;28;40940;-75
2024/03/22 04:08:14;;;;;;;11.73;7.60;;;;;;;5.84;73.97;99397.66;5093465;28;40016;-76
2024/03/22 04:10:41;;;;;;;13.93;7.00;;;;;;;5.80;73.84;99385.56;5092830;28;41882;-76
2024/03/22 04:13:08;;;;;;;10.37;6.23;;;;;;;5.80;74.04;99385.56;5091925;28;42830;-76
2024/03/22 04:15:35;;;;;;;9.73;6.60;;;;;;;5.78;74.69;99384.75;5074311;28;41140;-77
2024/03/22 04:18:02;;;;;;;11.57;7.80;;;;;;;5.72;74.30;99385.81;5091985;28;43018;-76
2024/03/22 04:20:29;;;;;;;11.23;7.57;;;;;;;5.75;74.58;99390.09;5091530;28;41657;-77
2024/03/22 04:22:56;;;;;;;10.63;7.30;;;;;;;5.73;74.56;99389.28;5093297;28;43108;-76
2024/03/22 04:25:24;;;;;;;12.27;7.97;;;;;;;5.70;74.46;99389.38;5091575;28;41086;-76
2024/03/22 04:27:51;;;;;;;10.17;7.07;;;;;;;5.71;74.36;99385.84;5092014;28;39786;-77
2024/03/22 04:30:18;;;;;;;10.90;7.07;;;;;;;5.70;74.54;99381.50;5090809;28;40512;-76
2024/03/22 04:32:47;;;;;;;12.13;8.07;;;;;;;5.69;74.69;99382.41;5091518;28;44362;-76
2024/03/22 04:35:13;;;;;;;13.90;7.73;;;;;;;5.67;74.55;99376.38;5090971;28;41566;-76
2024/03/22 04:37:41;;;;;;;12.53;8.07;;;;;;;5.51;74.77;99346.28;5091691;28;40025;-75
2024/03/22 04:40:10;;;;;;;12.17;7.80;;;;;;;5.63;74.56;99374.75;5090865;28;44290;-75
2024/03/22 04:42:39;;;;;;;11.53;7.27;;;;;;;5.50;74.42;99352.44;5091317;28;42464;-75
2024/03/22 04:45:07;;;;;;;11.80;8.17;;;;;;;5.59;74.69;99365.25;5092405;28;43084;-76
2024/03/22 04:47:34;;;;;;;12.50;7.70;;;;;;;5.57;74.98;99369.69;5091504;28;38842;-76
2024/03/22 04:50:01;;;;;;;12.57;8.00;;;;;;;5.55;74.94;99363.66;5074417;28;40619;-77
2024/03/22 04:52:28;;;;;;;11.87;7.20;;;;;;;5.53;74.74;99362.84;5092414;28;42725;-76
2024/03/22 04:54:55;;;;;;;11.87;7.33;;;;;;;5.21;75.05;99299.13;5092082;28;42056;-76
2024/03/22 04:57:21;;;;;;;11.23;7.47;;;;;;;5.21;74.81;99314.03;5092881;28;40237;-75
2024/03/22 04:59:50;;;;;;;11.97;7.37;;;;;;;5.51;74.67;99359.41;5073243;28;40272;-75
2024/03/22 05:02:17;;;;;;;9.67;6.43;;;;;;;5.50;75.00;99358.56;5092125;28;43541;-75
2024/03/22 05:04:45;;;;;;;11.30;6.77;;;;;;;5.48;74.80;99351.63;5073633;28;42243;-76
2024/03/22 05:07:11;;;;;;;12.23;7.87;;;;;;;5.38;74.82;99336.19;5092308;28;41019;-76
2024/03/22 05:09:39;;;;;;;11.07;7.50;;;;;;;5.45;75.14;99354.34;5107682;28;42769;-76
2024/03/22 05:12:05;;;;;;;11.20;7.23;;;;;;;5.40;75.16;99333.50;5074095;28;43097;-77
2024/03/22 05:14:32;;;;;;;12.80;7.83;;;;;;;5.47;75.38;99345.50;5090927;28;41241;-75
2024/03/22 05:17:00;;;;;;;11.77;7.77;;;;;;;5.44;75.71;99326.41;5073881;28;39337;-76
2024/03/22 05:19:28;;;;;;;11.03;7.17;;;;;;;5.50;75.63;99336.69;5107440;28;40673;-76
2024/03/22 05:21:54;;;;;;;9.07;6.60;;;;;;;5.51;75.59;99334.00;5073727;28;42935;-77
2024/03/22 05:24:21;;;;;;;10.50;7.03;;;;;;;5.46;75.35;99330.66;5091698;28;42449;-76
2024/03/22 05:26:48;;;;;;;10.80;7.00;;;;;;;5.53;75.55;99345.31;5093758;28;40957;-75
2024/03/22 05:29:15;;;;;;;12.97;8.20;;;;;;;5.53;75.02;99339.22;5094194;28;41740;-76
2024/03/22 05:31:47;;;;;;;9.33;6.97;;;;;;;5.40;75.26;99321.25;5093557;28;42746;-77
2024/03/22 05:34:16;;;;;;;9.90;7.33;;;;;;;5.51;75.12;99346.28;5091110;28;42926;-75
2024/03/22 05:36:44;;;;;;;12.03;7.07;;;;;;;5.51;74.80;99348.91;5093705;28;38746;-77
2024/03/22 05:39:10;;;;;;;9.50;6.37;;;;;;;5.45;74.74;99341.22;5094070;28;42093;-75
2024/03/22 05:41:38;;;;;;;12.37;6.73;;;;;;;5.55;74.30;99340.03;5076726;28;43040;-76
2024/03/22 05:44:04;;;;;;;12.03;7.27;;;;;;;5.57;74.38;99343.44;5076996;28;41245;-76
2024/03/22 05:46:32;;;;;;;11.87;7.23;;;;;;;5.56;74.02;99339.13;5093288;28;39232;-76
2024/03/22 05:48:58;;;;;;;10.17;6.67;;;;;;;5.63;74.12;99343.22;5093756;28;41825;-76
2024/03/22 05:51:27;;;;;;;9.27;6.27;;;;;;;5.68;73.99;99338.69;5093703;28;42951;-77
2024/03/22 05:53:54;;;;;;;9.53;6.70;;;;;;;5.74;73.77;99330.56;5094787;28;42196;-78
2024/03/22 05:56:21;;;;;;;11.47;7.27;;;;;;;5.73;73.67;99320.97;5097980;28;42100;-76
2024/03/22 05:58:48;;;;;;;10.13;7.23;;;;;;;5.72;73.83;99300.84;5099513;28;40529;-76
2024/03/22 06:01:15;;;;;;;11.90;7.63;;;;;;;5.89;73.78;99324.81;5094236;28;42780;-77
2024/03/22 06:03:41;;;;;;;11.70;7.07;;;;;;;5.95;73.85;99329.81;5077051;28;41955;-75
2024/03/22 06:06:09;;;;;;;11.20;7.90;;;;;;;6.00;73.72;99317.38;5093675;28;39029;-75
2024/03/22 06:08:39;;;;;;;11.93;7.53;;;;;;;6.01;73.76;99313.00;5095394;28;42042;-75
2024/03/22 06:11:08;;;;;;;11.40;7.13;;;;;;;6.06;74.35;99311.03;5093656;28;42892;-77
2024/03/22 06:13:34;;;;;;;12.47;7.90;;;;;;;6.23;74.22;99323.56;5093684;28;41446;-75
2024/03/22 06:16:02;;;;;;;12.77;8.03;;;;;;;6.33;74.07;99324.91;5094791;28;39960;-77
2024/03/22 06:18:28;;;;;;;13.27;7.47;;;;;;;6.44;73.72;99313.06;5076154;28;42259;-75
2024/03/22 06:20:56;;;;;;;12.53;7.50;;;;;;;6.58;73.81;99304.66;5093377;28;41719;-75
2024/03/22 06:23:23;;;;;;;13.87;9.00;;;;;;;6.71;74.32;99313.78;5076821;28;42323;-75
2024/03/22 06:25:55;;;;;;;12.47;8.57;;;;;;;6.84;74.43;99304.47;5093359;28;38291;-77
2024/03/22 06:28:22;;;;;;;15.00;8.90;;;;;;;7.00;73.97;99311.75;5093420;28;41766;-76
2024/03/22 06:30:49;;;;;;;12.63;8.07;;;;;;;7.13;73.73;99312.97;5075649;28;43243;-78
2024/03/22 06:33:17;;;;;;;15.87;10.20;;;;;;;7.24;74.06;99305.47;5076398;28;41287;-77
2024/03/22 06:35:43;;;;;;;14.63;9.77;;;;;;;7.31;74.08;99290.25;5091678;28;39097;-75
2024/03/22 06:38:11;;;;;;;16.13;9.17;;;;;;;7.33;73.67;99291.91;5093648;28;41656;-74
2024/03/22 06:40:37;;;;;;;13.60;9.37;;;;;;;7.34;73.87;99292.78;5099207;28;42803;-74
2024/03/22 06:43:06;;;;;;;12.33;9.00;;;;;;;7.26;73.75;99277.31;5114239;28;42413;-74
2024/03/22 06:45:32;;;;;;;14.67;9.77;;;;;;;7.30;73.31;99289.41;5112534;28;39838;-74
2024/03/22 06:48:00;;;;;;;13.70;9.13;;;;;;;7.27;73.86;99294.81;5112948;28;41710;-75
2024/03/22 06:50:26;;;;;;;16.70;10.07;;;;;;;7.24;73.51;99294.94;5095675;28;41812;-75
2024/03/22 06:52:54;;;;;;;13.97;10.03;;;;;;;7.27;73.75;99300.09;5113274;28;41971;-75
2024/03/22 06:55:20;;;;;;;14.77;10.37;;;;;;;7.32;74.32;99292.84;5095701;28;40111;-76
2024/03/22 06:57:49;;;;;;;15.40;9.83;;;;;;;7.55;74.44;99289.22;5113316;28;42571;-75
2024/03/22 07:00:17;;;;;;;17.23;10.60;;;;;;;7.87;74.83;99280.75;5095091;28;42855;-76
2024/03/22 07:02:45;;;;;;;16.20;10.37;;;;;;;8.18;74.17;99266.16;5112741;28;42299;-76
2024/03/22 07:05:11;;;;;;;17.63;10.50;;;;;;;8.45;73.88;99272.81;5112738;28;40816;-75
2024/03/22 07:07:39;;;;;;;15.03;9.90;;;;;;;8.77;73.20;99270.44;5112404;28;40264;-73
2024/03/22 07:10:06;;;;;;;14.43;9.90;;;;;;;9.30;72.80;99263.34;5112847;28;42485;-76
2024/03/22 07:12:33;;;;;;;16.87;11.90;;;;;;;10.94;70.02;99280.06;5113048;28;42362;-74
2024/03/22 07:15:01;;;;;;;15.50;11.47;;;;;;;12.12;65.79;99287.16;5113908;28;40753;-75
2024/03/22 07:17:30;;;;;;;15.63;10.80;;;;;;;12.74;63.76;99290.31;5096045;28;40680;-75
2024/03/22 07:19:57;;;;;;;13.07;10.70;;;;;;;13.02;61.25;99292.88;5095658;28;42511;-77
2024/03/22 07:22:24;;;;;;;15.17;9.80;;;;;;;13.27;60.49;99306.31;5092445;28;42240;-75
2024/03/22 07:24:51;;;;;;;14.83;11.27;;;;;;;13.97;59.33;99309.50;5075641;28;40226;-77
2024/03/22 07:27:18;;;;;;;14.30;11.07;;;;;;;15.56;56.68;99296.22;5101875;28;42154;-75
2024/03/22 07:29:45;;;;;;;13.93;10.73;;;;;;;18.23;51.79;99339.56;5111937;28;41814;-77
2024/03/22 07:32:12;;;;;;;15.33;10.13;;;;;;;20.12;47.04;99334.06;5112474;28;41169;-75
2024/03/22 07:34:40;;;;;;;17.40;11.03;;;;;;;21.47;43.72;99368.53;5112892;28;41975;-78
2024/03/22 07:37:07;;;;;;;14.23;10.90;;;;;;;21.35;42.30;99375.13;5095173;28;40901;-77
2024/03/22 07:39:34;;;;;;;13.17;10.00;;;;;;;20.77;42.35;99375.41;5112135;28;43735;-76
2024/03/22 07:42:02;;;;;;;12.13;9.57;;;;;;;20.17;43.12;99366.72;5112028;28;42313;-77
2024/03/22 07:44:29;;;;;;;12.70;9.87;;;;;;;20.30;43.55;99364.59;5094997;28;38817;-77
2024/03/22 07:46:56;;;;;;;12.10;9.67;;;;;;;20.75;43.17;99356.69;5112279;28;43721;-76
2024/03/22 07:49:23;;;;;;;13.43;9.40;;;;;;;20.90;41.85;99357.03;5111535;27;44192;-78
2024/03/22 07:51:53;;;;;;;10.30;8.70;;;;;;;20.27;42.16;99358.66;5095664;28;40915;-76
2024/03/22 07:54:19;;;;;;;12.50;7.93;;;;;;;19.57;43.59;99358.00;5113617;28;41010;-77
2024/03/22 07:56:47;;;;;;;9.90;8.00;;;;;;;19.15;44.19;99361.88;5095219;28;43606;-77
2024/03/22 07:59:13;;;;;;;10.50;8.13;;;;;;;18.90;45.00;99347.97;5112706;28;43795;-76
2024/03/22 08:01:41;;;;;;;10.40;8.27;;;;;;;18.62;45.81;99332.59;5111294;28;42365;-76
2024/03/22 08:04:07;;;;;;;11.00;8.07;;;;;;;18.46;45.57;99332.22;5111696;28;40384;-76
2024/03/22 08:06:35;;;;;;;9.07;7.77;;;;;;;18.63;45.53;99340.53;5111230;28;40596;-76
2024/03/22 08:09:03;;;;;;;11.40;8.67;;;;;;;18.41;46.00;99323.72;5094534;28;42169;-77
2024/03/22 08:11:30;;;;;;;12.00;9.27;;;;;;;18.14;46.10;99322.47;5111315;28;43282;-77
2024/03/22 08:14:02;;;;;;;10.57;9.07;;;;;;;17.94;46.53;99315.25;5112693;28;41002;-77
2024/03/22 08:16:29;;;;;;;12.77;9.00;;;;;;;17.87;47.18;99314.09;5094153;28;41820;-77
2024/03/22 08:18:56;;;;;;;11.70;9.57;;;;;;;17.77;47.13;99313.19;5094807;28;42731;-76
2024/03/22 08:21:24;;;;;;;11.17;9.03;;;;;;;17.82;47.16;99306.44;5094543;28;41472;-79
2024/03/22 08:23:51;;;;;;;11.23;8.73;;;;;;;18.40;47.12;99295.22;5111948;28;41150;-79
2024/03/22 08:26:20;;;;;;;13.23;9.73;;;;;;;19.54;46.16;99299.16;5112819;28;41763;-80
2024/03/22 08:28:47;;;;;;;12.67;10.03;;;;;;;20.46;45.94;99303.97;5111402;28;42805;-78
2024/03/22 08:31:14;;;;;;;13.43;10.23;;;;;;;21.51;44.22;99314.13;5094123;28;41156;-79
2024/03/22 08:33:40;;;;;;;12.23;9.70;;;;;;;22.68;41.37;99311.97;5113247;28;40237;-80
2024/03/22 08:36:08;;;;;;;10.57;8.57;;;;;;;24.88;38.26;99342.75;5112127;28;41708;-82
2024/03/22 08:38:36;;;;;;;10.80;9.47;;;;;;;27.41;34.05;99346.72;5114927;28;20226;-80
2024/03/22 08:41:03;;;;;;;10.80;8.38;;;;;;;30.26;30.16;99370.16;5115407;28;43423;-78
2024/03/22 08:43:31;;;;;;;10.90;8.25;;;;;;;32.89;27.18;99383.66;5112874;28;40978;-77
2024/03/22 08:45:58;;;;;;;7.97;7.18;;;;;;;33.70;25.03;99394.34;5112172;28;41793;-77
2024/03/22 08:48:25;;;;;;;8.23;7.20;;;;;;;32.32;26.25;99373.84;5111623;28;42817;-77
2024/03/22 08:50:52;;;;;;;11.25;7.38;;;;;;;31.18;27.22;99365.59;5094356;28;42740;-78
2024/03/22 08:53:19;;;;;;;8.40;7.18;;;;;;;29.94;28.25;99359.97;5113289;28;39976;-80
2024/03/22 08:55:47;;;;;;;8.57;7.68;;;;;;;28.61;29.42;99344.09;5112347;28;41497;-80
2024/03/22 08:58:14;;;;;;;7.70;6.83;;;;;;;27.61;30.80;99332.50;5111641;28;41651;-79
2024/03/22 09:00:44;;;;;;;8.57;7.67;;;;;;;26.77;31.48;99332.91;5111125;28;42465;-78
2024/03/22 09:03:11;;;;;;;7.40;6.27;;;;;;;26.19;32.24;99313.81;5113062;28;41107;-82
2024/03/22 09:05:38;;;;;;;7.17;6.37;;;;;;;25.81;32.53;99305.66;5094279;28;40764;-78
2024/03/22 09:08:05;;;;;;;8.50;6.07;;;;;;;25.77;33.40;99293.47;5111408;28;43808;-84
2024/03/22 09:10:32;;;;;;;7.73;6.03;;;;;;;25.86;33.46;99288.81;5111208;28;43106;-80
2024/03/22 09:12:59;;;;;;;7.33;5.67;;;;;;;26.01;32.60;99289.69;5111839;28;40824;-84
2024/03/22 09:15:26;;;;;;;6.53;5.83;;;;;;;26.18;32.82;99288.53;5111353;28;43116;-78
2024/03/22 09:17:54;;;;;;;5.90;5.27;;;;;;;26.72;32.16;99294.56;5111850;28;41374;-80
2024/03/22 09:20:21;;;;;;;7.33;5.17;;;;;;;27.45;31.55;99288.13;5111334;28;43360;-78
2024/03/22 09:22:49;;;;;;;5.78;4.60;;;;;;;29.03;30.11;99294.00;5111577;28;39882;-80
2024/03/22 09:25:16;;;;;;;4.82;3.55;;;;;;;29.11;28.40;99295.72;5112231;28;41732;-77
2024/03/22 09:27:43;;;;;;;4.53;3.35;;;;;;;28.91;28.93;99303.81;5094091;28;42644;-83
2024/03/22 09:30:11;;;;;;;4.43;3.80;;;;;;;28.70;29.67;99298.41;5111810;28;42896;-80
2024/03/22 09:32:38;;;;;;;3.63;3.30;;;;;;;28.43;29.48;99278.38;5091173;28;40736;-87
2024/03/22 09:35:07;;;;;;;4.30;3.90;;;;;;;28.54;29.62;99283.25;5090894;28;42586;-84
2024/03/22 09:37:34;;;;;;;5.00;4.37;;;;;;;28.38;28.68;99283.56;5109143;28;43103;-83
2024/03/22 09:40:01;;;;;;;3.93;3.53;;;;;;;28.15;29.70;99267.44;5093996;28;44084;-82
2024/03/22 09:42:32;;;;;;;4.90;3.63;;;;;;;28.24;30.08;99267.13;5111072;28;39712;-81
2024/03/22 09:45:01;;;;;;;4.53;3.17;;;;;;;28.28;29.41;99261.28;5109246;28;42720;-83
2024/03/22 09:47:28;;;;;;;2.70;2.50;;;;;;;28.34;29.34;99260.47;5093855;28;41646;-81
2024/03/22 09:49:57;;;;;;;2.60;2.40;;;;;;;28.31;29.60;99250.84;5111015;28;43233;-81
2024/03/22 09:52:25;;;;;;;2.53;2.33;;;;;;;28.21;29.92;99234.81;5111091;28;42498;-81
2024/03/22 09:54:52;;;;;;;2.80;2.60;;;;;;;28.06;29.86;99242.25;5111361;28;42905;-81
2024/03/22 09:57:22;;;;;;;4.23;2.20;;;;;;;27.75;29.79;99225.47;5111039;28;42745;-80
2024/03/22 09:59:50;;;;;;;2.60;2.40;;;;;;;27.46;30.56;99232.69;5127753;27;42378;-85
2024/03/22 10:02:18;;;;;;;2.40;2.07;;;;;;;27.10;30.75;99232.75;5093870;28;42457;-85
2024/03/22 10:04:46;;;;;;;3.37;2.07;;;;;;;26.90;31.08;99225.38;5110933;28;41123;-78
2024/03/22 10:07:19;;;;;;;2.37;2.00;;;;;;;26.50;30.71;99222.16;5107355;28;43086;-77
2024/03/22 10:09:48;;;;;;;2.57;2.20;;;;;;;26.19;30.79;99227.78;5110108;28;43400;-81
2024/03/22 10:12:16;;;;;;;2.83;1.83;;;;;;;25.83;31.52;99221.38;5111581;27;38793;-82
2024/03/22 10:14:44;;;;;;;2.30;1.77;;;;;;;25.57;32.08;99198.16;5114393;28;42564;-83
2024/03/22 10:17:11;;;;;;;1.97;1.60;;;;;;;25.55;32.09;99215.66;5113700;28;41616;-77
2024/03/22 10:19:40;;;;;;;2.73;1.43;;;;;;;25.41;32.13;99220.84;5113613;28;42075;-78
2024/03/22 10:22:06;;;;;;;1.50;1.40;;;;;;;25.40;32.68;99202.03;5114479;28;39708;-82
2024/03/22 10:24:34;;;;;;;1.97;1.80;;;;;;;25.58;32.38;99207.16;5113669;28;42635;-80
2024/03/22 10:27:02;;;;;;;1.77;1.50;;;;;;;25.84;32.57;99204.88;5096981;28;42068;-83
2024/03/22 10:29:30;;;;;;;1.47;1.37;;;;;;;26.62;31.91;99198.91;5114510;28;43566;-76
2024/03/22 10:31:57;;;;;;;2.07;1.80;;;;;;;27.50;30.17;99204.06;5096829;28;39809;-80
2024/03/22 10:34:25;;;;;;;1.97;1.77;;;;;;;28.33;29.61;99202.41;5114584;28;42089;-77
2024/03/22 10:36:52;;;;;;;1.80;1.70;;;;;;;29.01;28.17;99180.72;5096164;28;42897;-76
2024/03/22 10:39:20;;;;;;;2.13;1.93;;;;;;;29.33;27.98;99212.66;5096310;28;41444;-76
2024/03/22 10:41:47;;;;;;;2.58;1.95;;;;;;;29.29;28.11;99211.41;5114448;28;39998;-76
2024/03/22 10:44:17;;;;;;;1.80;1.70;;;;;;;29.50;28.40;99213.13;5112650;28;42578;-77
2024/03/22 10:46:44;;;;;;;3.13;2.00;;;;;;;29.29;27.97;99203.22;5113699;28;42618;-77
2024/03/22 10:49:16;;;;;;;2.40;2.00;;;;;;;28.84;27.52;99205.63;5112258;28;41332;-77
2024/03/22 10:51:46;;;;;;;2.57;1.93;;;;;;;28.35;29.09;99196.78;5114303;28;42340;-77
2024/03/22 10:54:19;;;;;;;1.90;1.73;;;;;;;27.86;29.11;99181.34;5112733;28;40559;-78
2024/03/22 10:56:47;;;;;;;2.57;2.30;;;;;;;27.46;30.13;99180.16;5114196;28;43858;-75
2024/03/22 10:59:20;;;;;;;2.50;2.00;;;;;;;26.88;30.82;99173.09;5112738;28;43215;-76
2024/03/22 11:01:47;;;;;;;2.20;1.97;;;;;;;26.13;31.78;99166.91;5112815;28;41079;-75
2024/03/22 11:04:17;;;;;;;2.17;1.97;;;;;;;25.35;32.74;99158.34;5129828;27;42745;-76
2024/03/22 11:06:48;;;;;;;3.10;1.80;;;;;;;24.74;33.83;99143.03;5112411;28;42430;-75
2024/03/22 11:09:22;;;;;;;3.27;1.70;;;;;;;24.30;35.07;99130.06;5095652;28;41246;-75
2024/03/22 11:11:51;;;;;;;2.47;1.83;;;;;;;24.02;35.69;99112.56;5112517;28;38832;-76
2024/03/22 11:14:21;;;;;;;4.10;1.70;;;;;;;23.79;36.27;99107.91;5112238;28;42394;-76
2024/03/22 11:16:48;;;;;;;1.67;1.57;;;;;;;23.60;36.41;99100.22;5112764;28;41720;-77
2024/03/22 11:19:16;;;;;;;1.50;1.30;;;;;;;23.45;37.14;99096.50;5113755;28;42248;-75
2024/03/22 11:21:42;;;;;;;2.03;1.53;;;;;;;23.51;37.24;99087.72;5112716;28;40124;-75
2024/03/22 11:24:10;;;;;;;2.07;1.00;;;;;;;24.30;36.50;99087.63;5094075;28;42846;-78
2024/03/22 11:26:37;;;;;;;1.20;0.93;;;;;;;25.38;35.27;99084.78;5113555;28;42716;-76
2024/03/22 11:29:05;;;;;;;1.40;1.20;;;;;;;25.92;34.38;99088.13;5113652;28;43057;-77
2024/03/22 11:31:33;;;;;;;1.67;1.37;;;;;;;26.45;33.69;99086.94;5095187;28;38906;-76
2024/03/22 11:34:01;;;;;;;1.23;1.07;;;;;;;27.23;32.83;99087.91;5112424;28;42080;-79